Trucksville, Pennsylvania
Current Conditions -  °F | °C
As of 1:54 PM on Friday 21 Nov 2014 (Local Time) from KAVP Reporting Station
Overcast Overcast  
Wind Chill: 21°   Ceiling: 5500
Heat Index: 31°   Visibility: 10mi
Dew Point:   Wind: 14mph
Humidity: 38%   Direction: 320°NW
Pressure: 30.32"   Gusts: 22mph
Location:  41.2938°N, 75.9861°W
Report Text: KAVP 211854Z AUTO 32012G19KT 10SM OVC055 M01/M13 A3032 RMK AO2 SLP277 T10061133
Loading
Personal Weather Stations






























Interactive Weather Map New forecast layout! Learn more

10-Day Weather Forecast

Advertisements
Track Severe Weather on mobile